Time;durP1;ratioP1;P1;durP2;ratioP2;P2;SDS_P1;SDS_P2;PMS_P1;PMS_P2;Temp;Humidity;BMP_temperature;BMP_pressure;BME280_temperature;BME280_humidity;BME280_pressure;Samples;Min_cycle;Max_cycle;Signal;HPM_P1;HPM_P2
2023/05/24 00:01:32;;;;;;;19.63;4.90;;;;;;;;;;5087571;28;20031;-65
2023/05/24 00:03:59;;;;;;;13.45;4.30;;;;;;;;;;5088212;28;20020;-65
2023/05/24 00:06:27;;;;;;;8.82;3.47;;;;;;;;;;5086415;28;20042;-65
2023/05/24 00:08:52;;;;;;;18.50;4.55;;;;;;;;;;5095983;28;20080;-65
2023/05/24 00:11:18;;;;;;;12.15;3.80;;;;;;;;;;5085735;28;20028;-65
2023/05/24 00:13:43;;;;;;;9.57;4.13;;;;;;;;;;5085184;28;20432;-65
2023/05/24 00:16:08;;;;;;;14.52;4.60;;;;;;;;;;5089920;28;20031;-65
2023/05/24 00:18:39;;;;;;;11.65;4.57;;;;;;;;;;5096468;28;20106;-64
2023/05/24 00:21:05;;;;;;;11.27;4.25;;;;;;;;;;5096040;28;20037;-65
2023/05/24 00:23:30;;;;;;;8.32;3.28;;;;;;;;;;5095813;28;20020;-65
2023/05/24 00:25:55;;;;;;;14.50;3.72;;;;;;;;;;5088045;28;20127;-65
2023/05/24 00:28:20;;;;;;;12.15;4.63;;;;;;;;;;5089846;28;20475;-65
2023/05/24 00:30:46;;;;;;;8.90;3.72;;;;;;;;;;5093977;28;20394;-65
2023/05/24 00:33:12;;;;;;;8.20;3.58;;;;;;;;;;5098600;28;20020;-65
2023/05/24 00:35:37;;;;;;;13.57;4.53;;;;;;;;;;5090506;28;20080;-65
2023/05/24 00:38:02;;;;;;;17.35;4.75;;;;;;;;;;5095647;28;20020;-65
2023/05/24 00:40:27;;;;;;;11.48;4.47;;;;;;;;;;5091186;28;20197;-65
2023/05/24 00:42:53;;;;;;;7.55;3.75;;;;;;;;;;5095842;28;20038;-65
2023/05/24 00:45:18;;;;;;;8.73;3.15;;;;;;;;;;5092841;28;20023;-65
2023/05/24 00:47:44;;;;;;;8.68;4.05;;;;;;;;;;5088775;28;20036;-66
2023/05/24 00:50:15;;;;;;;10.65;4.15;;;;;;;;;;5095028;28;20016;-66
2023/05/24 00:52:41;;;;;;;17.77;4.05;;;;;;;;;;5087165;28;20076;-65
2023/05/24 00:55:07;;;;;;;10.18;3.88;;;;;;;;;;5099876;28;20657;-65
2023/05/24 00:57:33;;;;;;;15.95;4.28;;;;;;;;;;5097279;28;20027;-66
2023/05/24 00:59:58;;;;;;;11.30;4.07;;;;;;;;;;5098720;28;20181;-65
2023/05/24 01:02:24;;;;;;;9.23;4.05;;;;;;;;;;5089621;28;20031;-65
2023/05/24 01:04:49;;;;;;;10.73;4.43;;;;;;;;;;5097548;28;20028;-65
2023/05/24 01:07:19;;;;;;;13.07;4.82;;;;;;;;;;5093620;28;20023;-65
2023/05/24 01:09:47;;;;;;;14.45;4.53;;;;;;;;;;5088908;28;20036;-65
2023/05/24 01:12:30;;;;;;;12.68;4.97;;;;;;;;;;5087393;28;20834;-65
2023/05/24 01:15:00;;;;;;;9.77;3.78;;;;;;;;;;5092896;28;20040;-65
2023/05/24 01:17:31;;;;;;;12.88;4.28;;;;;;;;;;5097202;28;20834;-65
2023/05/24 01:20:00;;;;;;;9.40;3.55;;;;;;;;;;5090046;28;20023;-65
2023/05/24 01:22:44;;;;;;;9.43;3.67;;;;;;;;;;5086669;28;20032;-65
2023/05/24 01:25:21;;;;;;;11.43;4.22;;;;;;;;;;5092748;28;20030;-65
2023/05/24 01:27:47;;;;;;;7.88;3.35;;;;;;;;;;5094925;28;20137;-65
2023/05/24 01:30:12;;;;;;;10.15;3.72;;;;;;;;;;5086960;28;20111;-65
2023/05/24 01:32:38;;;;;;;7.32;3.63;;;;;;;;;;5089814;28;20114;-65
2023/05/24 01:35:03;;;;;;;15.38;4.25;;;;;;;;;;5086822;28;20032;-65
2023/05/24 01:37:29;;;;;;;14.50;4.28;;;;;;;;;;5099752;28;20019;-65
2023/05/24 01:39:54;;;;;;;9.90;4.22;;;;;;;;;;5096421;28;20482;-65
2023/05/24 01:42:19;;;;;;;14.93;4.40;;;;;;;;;;5094342;28;20038;-65
2023/05/24 01:45:03;;;;;;;15.97;4.70;;;;;;;;;;5092985;28;20036;-65
2023/05/24 01:47:32;;;;;;;21.08;4.47;;;;;;;;;;5090450;28;21834;-65
2023/05/24 01:50:00;;;;;;;12.18;4.93;;;;;;;;;;5086017;28;20076;-65
2023/05/24 01:52:30;;;;;;;7.60;3.53;;;;;;;;;;5098519;28;20031;-65
2023/05/24 01:54:56;;;;;;;9.23;4.10;;;;;;;;;;5096491;28;20032;-66
2023/05/24 01:57:22;;;;;;;8.57;4.30;;;;;;;;;;5092313;28;20434;-65
2023/05/24 01:59:48;;;;;;;9.02;3.83;;;;;;;;;;5091575;28;20034;-65
2023/05/24 02:02:14;;;;;;;9.43;4.35;;;;;;;;;;5094508;28;20039;-65
2023/05/24 02:04:40;;;;;;;11.60;3.80;;;;;;;;;;5094704;28;20521;-65
2023/05/24 02:07:05;;;;;;;11.35;4.43;;;;;;;;;;5047807;28;20020;-65
2023/05/24 02:09:30;;;;;;;8.50;3.88;;;;;;;;;;5027720;28;20158;-65
2023/05/24 02:11:55;;;;;;;13.38;4.28;;;;;;;;;;5048401;28;20031;-65
2023/05/24 02:14:21;;;;;;;9.23;4.25;;;;;;;;;;5041354;28;20032;-65
2023/05/24 02:16:46;;;;;;;12.48;3.75;;;;;;;;;;5052820;28;20111;-65
2023/05/24 02:19:12;;;;;;;9.43;4.30;;;;;;;;;;5042166;28;20066;-65
2023/05/24 02:21:38;;;;;;;12.05;4.38;;;;;;;;;;5046537;28;20027;-65
2023/05/24 02:24:03;;;;;;;13.63;5.40;;;;;;;;;;5024061;28;20040;-65
2023/05/24 02:26:28;;;;;;;9.43;4.03;;;;;;;;;;5029489;28;20043;-65
2023/05/24 02:28:54;;;;;;;11.85;4.57;;;;;;;;;;5034629;28;20034;-66
2023/05/24 02:31:20;;;;;;;10.48;4.10;;;;;;;;;;5043373;28;20158;-65
2023/05/24 02:33:45;;;;;;;11.45;4.28;;;;;;;;;;5036334;28;20040;-65
2023/05/24 02:36:11;;;;;;;8.65;4.60;;;;;;;;;;5038737;28;21696;-65
2023/05/24 02:38:36;;;;;;;17.85;4.13;;;;;;;;;;5014117;28;20096;-65
2023/05/24 02:41:02;;;;;;;10.48;4.85;;;;;;;;;;5043807;28;20062;-65
2023/05/24 02:43:27;;;;;;;17.80;4.90;;;;;;;;;;5030220;28;20028;-66
2023/05/24 02:45:52;;;;;;;14.63;5.10;;;;;;;;;;5028903;28;20062;-65
2023/05/24 02:48:18;;;;;;;11.82;5.35;;;;;;;;;;5039429;28;21611;-65
2023/05/24 02:50:43;;;;;;;10.38;4.03;;;;;;;;;;5034704;28;20135;-65
2023/05/24 02:53:08;;;;;;;11.02;4.82;;;;;;;;;;5040374;28;21354;-65
2023/05/24 02:55:33;;;;;;;10.80;4.72;;;;;;;;;;5037075;28;20094;-65
2023/05/24 02:57:59;;;;;;;10.25;4.35;;;;;;;;;;5033429;28;21650;-65
2023/05/24 03:00:25;;;;;;;8.80;4.00;;;;;;;;;;5032979;28;20060;-65
2023/05/24 03:02:51;;;;;;;13.32;4.80;;;;;;;;;;5027619;28;20162;-65
2023/05/24 03:05:16;;;;;;;14.90;4.63;;;;;;;;;;5037522;28;20086;-65
2023/05/24 03:07:42;;;;;;;9.85;4.45;;;;;;;;;;5034209;28;20031;-65
2023/05/24 03:10:07;;;;;;;14.75;4.65;;;;;;;;;;5034921;28;20048;-65
2023/05/24 03:12:32;;;;;;;9.82;5.00;;;;;;;;;;5043332;28;20026;-65
2023/05/24 03:14:58;;;;;;;13.18;4.97;;;;;;;;;;5033922;28;20159;-65
2023/05/24 03:17:23;;;;;;;14.27;4.55;;;;;;;;;;5049205;28;21446;-65
2023/05/24 03:19:48;;;;;;;11.25;4.45;;;;;;;;;;5027983;28;20036;-65
2023/05/24 03:22:14;;;;;;;9.63;5.22;;;;;;;;;;5036413;28;20047;-65
2023/05/24 03:24:39;;;;;;;26.27;5.43;;;;;;;;;;5043440;28;20601;-65
2023/05/24 03:27:05;;;;;;;11.50;5.38;;;;;;;;;;5041370;28;20027;-65
2023/05/24 03:29:31;;;;;;;15.25;6.05;;;;;;;;;;5023899;28;20143;-65
2023/05/24 03:31:56;;;;;;;10.88;4.57;;;;;;;;;;5042482;28;20032;-65
2023/05/24 03:34:21;;;;;;;16.90;5.60;;;;;;;;;;5038229;28;20032;-65
2023/05/24 03:36:47;;;;;;;21.95;5.22;;;;;;;;;;5035756;28;20031;-65
2023/05/24 03:39:12;;;;;;;13.27;5.13;;;;;;;;;;5035204;28;20028;-65
2023/05/24 03:41:37;;;;;;;12.30;4.78;;;;;;;;;;5036390;28;21474;-65
2023/05/24 03:44:03;;;;;;;15.85;5.35;;;;;;;;;;5034360;28;20059;-67
2023/05/24 03:46:28;;;;;;;9.75;4.78;;;;;;;;;;5028081;28;20040;-65
2023/05/24 03:48:53;;;;;;;14.45;4.20;;;;;;;;;;5030562;28;20039;-65
2023/05/24 03:51:19;;;;;;;14.25;4.32;;;;;;;;;;5029259;28;21492;-65
2023/05/24 03:53:44;;;;;;;13.05;4.97;;;;;;;;;;5049385;28;20379;-65
2023/05/24 03:56:09;;;;;;;10.73;5.03;;;;;;;;;;5047993;28;20354;-65
2023/05/24 03:58:34;;;;;;;9.10;4.88;;;;;;;;;;5037858;28;20113;-65
2023/05/24 04:01:00;;;;;;;17.08;4.72;;;;;;;;;;5036240;28;20046;-65
2023/05/24 04:03:26;;;;;;;11.65;5.13;;;;;;;;;;5031778;28;20036;-65
2023/05/24 04:05:52;;;;;;;9.23;4.63;;;;;;;;;;5041079;28;20024;-65
2023/05/24 04:08:17;;;;;;;9.13;4.75;;;;;;;;;;5029955;28;20020;-65
2023/05/24 04:10:43;;;;;;;10.35;4.70;;;;;;;;;;5028810;28;20159;-65
2023/05/24 04:13:08;;;;;;;14.20;5.70;;;;;;;;;;5032690;28;20061;-65
2023/05/24 04:15:33;;;;;;;12.60;4.75;;;;;;;;;;5036205;28;21433;-65
2023/05/24 04:17:59;;;;;;;12.65;5.38;;;;;;;;;;5041326;28;21517;-64
2023/05/24 04:20:26;;;;;;;13.98;4.75;;;;;;;;;;5042419;28;20054;-65
2023/05/24 04:22:51;;;;;;;13.52;6.07;;;;;;;;;;5033631;28;20063;-65
2023/05/24 04:25:16;;;;;;;8.93;4.93;;;;;;;;;;5020815;28;20094;-64
2023/05/24 04:27:43;;;;;;;8.48;4.95;;;;;;;;;;5032971;28;21779;-64
2023/05/24 04:30:09;;;;;;;14.15;5.47;;;;;;;;;;5038816;28;20028;-64
2023/05/24 04:32:35;;;;;;;12.80;5.78;;;;;;;;;;5045848;28;20945;-64
2023/05/24 04:35:04;;;;;;;17.38;5.25;;;;;;;;;;5050186;28;20032;-65
2023/05/24 04:37:30;;;;;;;14.02;4.53;;;;;;;;;;5040119;28;20028;-64
2023/05/24 04:39:55;;;;;;;11.98;5.03;;;;;;;;;;5034394;28;21672;-64
2023/05/24 04:42:21;;;;;;;9.93;4.57;;;;;;;;;;5044530;28;20113;-64
2023/05/24 04:44:46;;;;;;;16.50;6.68;;;;;;;;;;5039854;28;20031;-64
2023/05/24 04:47:12;;;;;;;15.25;5.78;;;;;;;;;;5044414;28;20039;-64
2023/05/24 04:49:38;;;;;;;15.27;5.97;;;;;;;;;;5033614;28;20043;-65
2023/05/24 04:52:06;;;;;;;15.10;6.63;;;;;;;;;;5036802;28;20112;-64
2023/05/24 04:54:31;;;;;;;14.35;7.28;;;;;;;;;;5044100;28;20040;-64
2023/05/24 04:56:57;;;;;;;17.25;7.47;;;;;;;;;;5037565;28;20113;-65
2023/05/24 04:59:22;;;;;;;13.45;6.85;;;;;;;;;;5034652;28;20163;-65
2023/05/24 05:01:47;;;;;;;16.23;6.88;;;;;;;;;;5042356;28;21060;-64
2023/05/24 05:04:12;;;;;;;14.23;7.05;;;;;;;;;;5022324;28;20036;-64
2023/05/24 05:06:39;;;;;;;18.85;6.55;;;;;;;;;;5039547;28;20132;-64
2023/05/24 05:09:12;;;;;;;21.00;7.30;;;;;;;;;;5038939;28;21022;-66
2023/05/24 05:11:38;;;;;;;17.60;7.90;;;;;;;;;;5031972;28;20036;-65
2023/05/24 05:14:03;;;;;;;22.00;7.40;;;;;;;;;;5042277;28;20864;-64
2023/05/24 05:16:29;;;;;;;17.15;7.35;;;;;;;;;;5039713;28;20030;-64
2023/05/24 05:18:54;;;;;;;20.08;7.82;;;;;;;;;;5044877;28;20070;-64
2023/05/24 05:21:20;;;;;;;17.15;6.72;;;;;;;;;;5036517;28;20040;-64
2023/05/24 05:23:45;;;;;;;17.98;7.15;;;;;;;;;;5037149;28;20036;-64
2023/05/24 05:26:10;;;;;;;17.50;7.47;;;;;;;;;;5043461;28;20038;-64
2023/05/24 05:28:36;;;;;;;21.80;7.60;;;;;;;;;;5026256;28;21612;-64
2023/05/24 05:31:01;;;;;;;15.02;7.95;;;;;;;;;;5034719;28;20036;-62
2023/05/24 05:33:26;;;;;;;15.48;7.20;;;;;;;;;;5042488;28;20084;-64
2023/05/24 05:35:52;;;;;;;14.52;7.90;;;;;;;;;;5055734;28;20466;-64
2023/05/24 05:38:17;;;;;;;16.80;7.57;;;;;;;;;;5032410;28;20047;-64
2023/05/24 05:40:42;;;;;;;20.33;7.78;;;;;;;;;;5035546;28;20031;-64
2023/05/24 05:43:08;;;;;;;16.02;7.38;;;;;;;;;;5038675;28;20040;-63
2023/05/24 05:45:33;;;;;;;21.00;7.95;;;;;;;;;;5032048;28;20810;-62
2023/05/24 05:47:58;;;;;;;17.67;8.02;;;;;;;;;;5032513;28;20031;-64
2023/05/24 05:50:24;;;;;;;15.95;7.38;;;;;;;;;;5033099;28;20039;-64
2023/05/24 05:52:49;;;;;;;17.20;7.63;;;;;;;;;;5038456;28;20038;-64
2023/05/24 05:55:15;;;;;;;22.92;7.28;;;;;;;;;;5046309;28;21655;-64
2023/05/24 05:57:40;;;;;;;22.42;7.50;;;;;;;;;;5035024;28;20304;-63
2023/05/24 06:00:07;;;;;;;16.73;6.72;;;;;;;;;;5036222;28;20084;-63
2023/05/24 06:02:32;;;;;;;22.63;7.25;;;;;;;;;;5090379;28;20031;-64
2023/05/24 06:04:57;;;;;;;16.70;6.38;;;;;;;;;;5100327;28;20538;-64
2023/05/24 06:07:23;;;;;;;20.70;6.82;;;;;;;;;;5107563;28;20030;-64
2023/05/24 06:09:48;;;;;;;17.58;6.68;;;;;;;;;;5096592;28;20054;-64
2023/05/24 06:12:13;;;;;;;20.92;6.78;;;;;;;;;;5106161;28;20497;-64
2023/05/24 06:14:38;;;;;;;16.35;6.47;;;;;;;;;;5110923;28;20026;-64
2023/05/24 06:17:04;;;;;;;15.82;6.32;;;;;;;;;;5092661;28;20020;-64
2023/05/24 06:19:29;;;;;;;18.38;6.20;;;;;;;;;;5110685;28;20058;-64
2023/05/24 06:21:55;;;;;;;16.40;6.32;;;;;;;;;;5111379;28;20102;-64
2023/05/24 06:24:20;;;;;;;23.05;6.30;;;;;;;;;;5109613;28;20174;-64
2023/05/24 06:26:46;;;;;;;27.05;6.40;;;;;;;;;;5110540;28;20039;-64
2023/05/24 06:29:11;;;;;;;12.48;5.78;;;;;;;;;;5110243;28;20016;-64
2023/05/24 06:31:36;;;;;;;18.98;6.07;;;;;;;;;;5108879;28;20035;-64
2023/05/24 06:34:02;;;;;;;20.45;7.10;;;;;;;;;;5109124;28;20080;-63
2023/05/24 06:36:27;;;;;;;19.35;6.97;;;;;;;;;;5109645;28;20512;-63
2023/05/24 06:38:52;;;;;;;21.02;5.82;;;;;;;;;;5109019;28;20016;-65
2023/05/24 06:41:17;;;;;;;20.83;7.22;;;;;;;;;;5109897;28;20080;-64
2023/05/24 06:43:43;;;;;;;28.67;7.28;;;;;;;;;;5110344;28;20529;-64
2023/05/24 06:46:08;;;;;;;16.85;7.03;;;;;;;;;;5110393;28;20028;-64
2023/05/24 06:48:33;;;;;;;12.70;6.28;;;;;;;;;;5092191;28;20122;-65
2023/05/24 06:50:58;;;;;;;24.73;7.60;;;;;;;;;;5110601;28;20050;-64
2023/05/24 06:53:24;;;;;;;21.15;6.63;;;;;;;;;;5109171;28;20794;-63
2023/05/24 06:55:49;;;;;;;19.67;7.05;;;;;;;;;;5109669;28;20016;-64
2023/05/24 06:58:16;;;;;;;14.73;6.40;;;;;;;;;;5108629;28;20475;-65
2023/05/24 07:00:41;;;;;;;14.98;6.10;;;;;;;;;;5108665;28;20039;-63
2023/05/24 07:03:07;;;;;;;27.73;7.38;;;;;;;;;;5108977;28;20024;-64
2023/05/24 07:05:33;;;;;;;21.83;6.40;;;;;;;;;;5110531;28;20028;-64
2023/05/24 07:07:58;;;;;;;12.75;5.95;;;;;;;;;;5110771;28;20046;-64
2023/05/24 07:10:23;;;;;;;16.95;6.35;;;;;;;;;;5110268;28;20039;-64
2023/05/24 07:12:48;;;;;;;23.58;6.88;;;;;;;;;;5103096;28;20031;-66
2023/05/24 07:15:14;;;;;;;15.02;6.43;;;;;;;;;;5074562;28;20471;-63
2023/05/24 07:17:39;;;;;;;21.60;7.22;;;;;;;;;;5091112;28;20024;-64
2023/05/24 07:20:09;;;;;;;24.90;7.22;;;;;;;;;;5073253;28;20035;-64
2023/05/24 07:22:34;;;;;;;14.63;6.32;;;;;;;;;;5077577;28;20020;-64
2023/05/24 07:25:00;;;;;;;27.08;7.22;;;;;;;;;;5091504;28;20634;-64
2023/05/24 07:27:25;;;;;;;16.10;7.18;;;;;;;;;;5091838;28;20035;-64
2023/05/24 07:29:51;;;;;;;15.18;6.47;;;;;;;;;;5093769;28;20031;-64
2023/05/24 07:32:16;;;;;;;19.98;7.18;;;;;;;;;;5091497;28;20032;-64
2023/05/24 07:34:42;;;;;;;16.77;6.53;;;;;;;;;;5092254;28;20039;-65
2023/05/24 07:37:07;;;;;;;14.18;6.63;;;;;;;;;;5092022;28;20020;-63
2023/05/24 07:39:32;;;;;;;17.38;6.85;;;;;;;;;;5092738;28;20425;-64
2023/05/24 07:41:58;;;;;;;26.25;7.97;;;;;;;;;;5072799;28;20390;-65
2023/05/24 07:44:23;;;;;;;21.35;6.20;;;;;;;;;;5096291;28;20034;-64
2023/05/24 07:46:48;;;;;;;14.05;6.68;;;;;;;;;;5095199;28;20092;-65
2023/05/24 07:49:14;;;;;;;18.25;6.35;;;;;;;;;;5095604;28;20510;-65
2023/05/24 07:51:39;;;;;;;22.92;6.75;;;;;;;;;;5094637;28;20028;-66
2023/05/24 07:54:04;;;;;;;22.48;6.78;;;;;;;;;;5095533;28;20034;-66
2023/05/24 07:56:30;;;;;;;24.23;6.35;;;;;;;;;;5101215;28;20042;-65
2023/05/24 07:59:02;;;;;;;20.27;7.68;;;;;;;;;;5113178;28;20389;-66
2023/05/24 08:01:27;;;;;;;14.13;6.60;;;;;;;;;;5095410;28;20099;-66
2023/05/24 08:03:53;;;;;;;22.67;6.57;;;;;;;;;;5107253;28;20123;-65
2023/05/24 08:06:18;;;;;;;17.42;6.97;;;;;;;;;;5093181;28;20020;-67
2023/05/24 08:08:44;;;;;;;13.02;6.75;;;;;;;;;;5094004;28;20055;-65
2023/05/24 08:11:10;;;;;;;21.95;7.30;;;;;;;;;;5098889;28;20016;-66
2023/05/24 08:13:35;;;;;;;17.25;6.70;;;;;;;;;;5102207;28;20081;-65
2023/05/24 08:16:00;;;;;;;18.73;6.85;;;;;;;;;;5092933;28;20063;-66
2023/05/24 08:18:26;;;;;;;13.73;6.72;;;;;;;;;;5075244;28;20077;-64
2023/05/24 08:20:51;;;;;;;18.95;7.40;;;;;;;;;;5079287;28;20116;-65
2023/05/24 08:23:17;;;;;;;20.60;6.85;;;;;;;;;;5110786;28;20072;-65
2023/05/24 08:25:42;;;;;;;10.80;6.47;;;;;;;;;;5109510;28;20031;-65
2023/05/24 08:28:09;;;;;;;10.85;5.80;;;;;;;;;;5112410;28;20531;-64
2023/05/24 08:30:34;;;;;;;11.95;5.75;;;;;;;;;;5111776;28;20050;-66
2023/05/24 08:33:00;;;;;;;17.10;5.95;;;;;;;;;;5112361;28;20443;-63
2023/05/24 08:35:25;;;;;;;11.15;5.85;;;;;;;;;;5094297;28;20027;-64
2023/05/24 08:37:50;;;;;;;14.43;5.82;;;;;;;;;;5112105;28;20027;-65
2023/05/24 08:40:16;;;;;;;13.30;6.47;;;;;;;;;;5111696;28;20027;-65
2023/05/24 08:42:41;;;;;;;12.13;6.75;;;;;;;;;;5093856;28;20114;-65
2023/05/24 08:45:08;;;;;;;18.45;5.95;;;;;;;;;;5111326;28;20123;-65
2023/05/24 08:47:35;;;;;;;11.82;5.78;;;;;;;;;;5084450;28;20028;-64
2023/05/24 08:50:00;;;;;;;10.90;5.30;;;;;;;;;;5092526;28;20117;-65
2023/05/24 08:52:26;;;;;;;12.15;6.25;;;;;;;;;;5092072;28;20028;-65
2023/05/24 08:54:52;;;;;;;22.17;6.90;;;;;;;;;;5091970;28;20032;-66
2023/05/24 08:57:17;;;;;;;11.50;6.47;;;;;;;;;;5074511;28;20032;-65
2023/05/24 08:59:43;;;;;;;17.52;7.72;;;;;;;;;;5077471;28;20023;-66
2023/05/24 09:02:10;;;;;;;23.70;7.07;;;;;;;;;;5112296;28;20481;-64
2023/05/24 09:04:36;;;;;;;19.05;6.80;;;;;;;;;;5112927;28;20024;-65
2023/05/24 09:07:01;;;;;;;12.70;5.85;;;;;;;;;;5097332;28;20500;-64
2023/05/24 09:09:28;;;;;;;11.10;5.88;;;;;;;;;;5093185;28;20059;-65
2023/05/24 09:11:55;;;;;;;16.15;6.18;;;;;;;;;;5103386;28;20028;-66
2023/05/24 09:14:20;;;;;;;14.60;6.15;;;;;;;;;;5094014;28;20447;-65
2023/05/24 09:16:46;;;;;;;15.23;5.90;;;;;;;;;;5099335;28;20054;-65
2023/05/24 09:19:12;;;;;;;11.18;5.55;;;;;;;;;;5092615;28;20032;-65
2023/05/24 09:21:38;;;;;;;8.40;5.80;;;;;;;;;;5093376;28;20382;-67
2023/05/24 09:24:06;;;;;;;15.48;5.80;;;;;;;;;;5100410;28;20023;-66
2023/05/24 09:26:32;;;;;;;17.40;6.15;;;;;;;;;;5099672;28;20036;-65
2023/05/24 09:28:57;;;;;;;14.38;6.20;;;;;;;;;;5104316;28;20024;-65
2023/05/24 09:31:33;;;;;;;11.82;5.97;;;;;;;;;;5075625;28;20042;-66
2023/05/24 09:33:58;;;;;;;10.40;6.10;;;;;;;;;;5091766;28;20023;-64
2023/05/24 09:36:23;;;;;;;10.57;6.03;;;;;;;;;;5092203;28;20024;-65
2023/05/24 09:39:01;;;;;;;15.95;6.20;;;;;;;;;;5091884;28;20031;-65
2023/05/24 09:41:26;;;;;;;13.95;5.13;;;;;;;;;;5090876;28;20031;-63
2023/05/24 09:43:52;;;;;;;13.88;6.80;;;;;;;;;;5111633;28;20031;-63
2023/05/24 09:46:18;;;;;;;19.55;5.82;;;;;;;;;;5093051;28;20049;-65
2023/05/24 09:48:56;;;;;;;13.40;6.30;;;;;;;;;;5111245;28;20028;-65
2023/05/24 09:51:22;;;;;;;14.55;6.35;;;;;;;;;;5111058;28;20051;-64
2023/05/24 09:53:50;;;;;;;10.30;5.68;;;;;;;;;;5111998;28;20533;-65
2023/05/24 09:56:15;;;;;;;10.95;5.72;;;;;;;;;;5111738;28;20024;-65
2023/05/24 09:58:41;;;;;;;13.80;6.07;;;;;;;;;;5111478;28;20024;-65
2023/05/24 10:01:07;;;;;;;13.02;6.07;;;;;;;;;;5092754;28;20026;-65
2023/05/24 10:03:36;;;;;;;14.93;6.35;;;;;;;;;;5111457;28;20065;-65
2023/05/24 10:06:03;;;;;;;17.80;6.28;;;;;;;;;;5090601;28;20039;-65
2023/05/24 10:08:29;;;;;;;12.00;5.95;;;;;;;;;;5092025;28;20487;-65
2023/05/24 10:10:55;;;;;;;13.23;6.13;;;;;;;;;;5098039;28;20118;-64
2023/05/24 10:13:21;;;;;;;8.90;5.25;;;;;;;;;;5111687;28;20081;-64
2023/05/24 10:15:47;;;;;;;13.23;6.85;;;;;;;;;;5110526;28;20020;-65
2023/05/24 10:18:12;;;;;;;9.93;6.07;;;;;;;;;;5110900;28;20022;-65
2023/05/24 10:20:39;;;;;;;10.40;4.35;;;;;;;;;;5109512;28;20024;-65
2023/05/24 10:23:06;;;;;;;10.30;5.35;;;;;;;;;;5110242;28;20027;-66
2023/05/24 10:25:32;;;;;;;15.15;6.22;;;;;;;;;;5107594;28;20024;-65
2023/05/24 10:28:00;;;;;;;14.32;5.82;;;;;;;;;;5094009;28;20106;-65
2023/05/24 10:30:25;;;;;;;15.00;6.68;;;;;;;;;;5103339;28;20024;-65
2023/05/24 10:32:52;;;;;;;22.05;6.72;;;;;;;;;;5095299;28;20023;-66
2023/05/24 10:35:19;;;;;;;17.08;5.80;;;;;;;;;;5106525;28;20034;-66
2023/05/24 10:37:45;;;;;;;13.48;5.90;;;;;;;;;;5100165;28;20031;-66
2023/05/24 10:40:20;;;;;;;15.55;6.82;;;;;;;;;;5099816;28;20028;-65
2023/05/24 10:42:46;;;;;;;11.73;5.53;;;;;;;;;;5100845;28;20023;-65
2023/05/24 10:45:24;;;;;;;14.95;6.55;;;;;;;;;;5109053;28;20042;-66
2023/05/24 10:47:49;;;;;;;12.55;6.03;;;;;;;;;;5081898;28;20111;-64
2023/05/24 10:50:18;;;;;;;11.88;6.05;;;;;;;;;;5108173;28;20172;-66
2023/05/24 10:52:43;;;;;;;13.93;5.47;;;;;;;;;;5108613;28;20087;-64
2023/05/24 10:55:10;;;;;;;14.95;6.95;;;;;;;;;;5104872;28;20624;-65
2023/05/24 10:57:37;;;;;;;14.63;6.47;;;;;;;;;;5107634;28;20078;-66
2023/05/24 11:00:26;;;;;;;14.50;6.57;;;;;;;;;;5106938;28;20039;-65
2023/05/24 11:02:58;;;;;;;13.23;6.25;;;;;;;;;;5107655;28;20032;-64
2023/05/24 11:05:23;;;;;;;18.38;6.18;;;;;;;;;;5095764;28;20024;-65
2023/05/24 11:07:49;;;;;;;19.70;6.00;;;;;;;;;;5109170;28;20030;-66
2023/05/24 11:10:18;;;;;;;15.15;6.25;;;;;;;;;;5108144;28;20058;-67
2023/05/24 11:12:43;;;;;;;14.05;6.05;;;;;;;;;;5110482;28;20035;-66
2023/05/24 11:15:11;;;;;;;19.35;7.03;;;;;;;;;;5109637;28;20023;-68
2023/05/24 11:17:55;;;;;;;12.48;6.07;;;;;;;;;;5094072;28;20024;-67
2023/05/24 11:20:21;;;;;;;14.00;5.70;;;;;;;;;;5113249;28;20524;-67
2023/05/24 11:22:46;;;;;;;14.40;6.32;;;;;;;;;;5113225;28;20088;-67
2023/05/24 11:25:12;;;;;;;11.23;5.93;;;;;;;;;;5112625;28;20039;-67
2023/05/24 11:27:42;;;;;;;13.77;6.57;;;;;;;;;;5111887;28;20038;-66
2023/05/24 11:30:07;;;;;;;13.65;6.78;;;;;;;;;;5099668;28;20445;-66
2023/05/24 11:32:33;;;;;;;15.43;5.95;;;;;;;;;;5098648;28;20020;-65
2023/05/24 11:34:58;;;;;;;17.70;6.38;;;;;;;;;;5112004;28;20510;-66
2023/05/24 11:37:23;;;;;;;11.18;5.47;;;;;;;;;;5113127;28;20034;-65
2023/05/24 11:39:51;;;;;;;12.88;6.47;;;;;;;;;;5113231;28;20436;-65
2023/05/24 11:42:16;;;;;;;10.95;5.35;;;;;;;;;;5103695;28;20051;-65
2023/05/24 11:44:41;;;;;;;14.85;6.47;;;;;;;;;;5112814;28;20062;-66
2023/05/24 11:47:07;;;;;;;12.07;6.32;;;;;;;;;;5112532;28;20027;-65
2023/05/24 11:49:33;;;;;;;19.42;6.07;;;;;;;;;;5112207;28;20792;-66
2023/05/24 11:51:58;;;;;;;16.92;6.25;;;;;;;;;;5101237;28;20030;-66
2023/05/24 11:54:24;;;;;;;10.68;5.82;;;;;;;;;;5113287;28;20102;-67
2023/05/24 11:56:51;;;;;;;11.98;5.35;;;;;;;;;;5106806;28;20501;-67
2023/05/24 11:59:17;;;;;;;18.30;5.65;;;;;;;;;;5095922;28;20032;-66
2023/05/24 12:01:43;;;;;;;10.27;5.07;;;;;;;;;;5108438;28;20500;-67
2023/05/24 12:04:08;;;;;;;13.57;6.85;;;;;;;;;;5111987;28;20020;-66
2023/05/24 12:06:41;;;;;;;10.70;6.30;;;;;;;;;;5102908;28;20035;-63
2023/05/24 12:09:08;;;;;;;10.07;5.40;;;;;;;;;;5109614;28;20559;-67
2023/05/24 12:11:38;;;;;;;10.40;5.68;;;;;;;;;;5113362;28;20031;-63
2023/05/24 12:14:04;;;;;;;13.18;5.53;;;;;;;;;;5104000;28;20023;-65
2023/05/24 12:16:31;;;;;;;12.35;5.85;;;;;;;;;;5093600;28;20384;-65
2023/05/24 12:18:56;;;;;;;12.30;4.85;;;;;;;;;;5090205;28;20019;-64
2023/05/24 12:21:21;;;;;;;8.48;4.63;;;;;;;;;;5098951;28;20072;-66
2023/05/24 12:23:47;;;;;;;20.58;5.85;;;;;;;;;;5096397;28;20024;-66
2023/05/24 12:26:13;;;;;;;17.63;5.30;;;;;;;;;;5074356;28;20016;-66
2023/05/24 12:28:38;;;;;;;12.82;5.85;;;;;;;;;;5096208;28;20351;-67
2023/05/24 12:31:04;;;;;;;13.27;6.07;;;;;;;;;;5103301;28;20027;-66
2023/05/24 12:33:29;;;;;;;10.30;5.15;;;;;;;;;;5097644;28;21724;-66
2023/05/24 12:35:55;;;;;;;11.15;5.38;;;;;;;;;;5093505;28;20024;-67
2023/05/24 12:38:24;;;;;;;15.40;5.28;;;;;;;;;;5096346;28;20024;-65
2023/05/24 12:40:49;;;;;;;9.80;5.40;;;;;;;;;;5091669;28;20024;-66
2023/05/24 12:43:16;;;;;;;12.18;5.80;;;;;;;;;;5110285;28;20102;-63
2023/05/24 12:45:41;;;;;;;12.50;5.75;;;;;;;;;;5111338;28;20051;-62
2023/05/24 12:48:07;;;;;;;12.60;5.93;;;;;;;;;;5109887;28;20070;-64
2023/05/24 12:50:33;;;;;;;16.92;5.68;;;;;;;;;;5097928;28;20282;-63
2023/05/24 12:52:59;;;;;;;11.23;6.07;;;;;;;;;;5109323;28;20115;-63
2023/05/24 12:55:25;;;;;;;14.02;5.78;;;;;;;;;;5103345;28;20464;-64
2023/05/24 12:57:54;;;;;;;12.00;5.95;;;;;;;;;;5103484;28;20069;-64
2023/05/24 13:00:20;;;;;;;17.40;6.72;;;;;;;;;;5110793;28;20035;-64
2023/05/24 13:02:45;;;;;;;11.07;5.82;;;;;;;;;;5109421;28;20023;-66
2023/05/24 13:05:11;;;;;;;16.27;5.95;;;;;;;;;;5110824;28;20026;-64
2023/05/24 13:07:36;;;;;;;13.18;5.75;;;;;;;;;;5095540;28;20489;-66
2023/05/24 13:10:02;;;;;;;16.25;6.47;;;;;;;;;;5102170;28;20028;-66
2023/05/24 13:12:27;;;;;;;14.65;6.20;;;;;;;;;;5107407;28;20034;-64
2023/05/24 13:14:53;;;;;;;20.42;6.30;;;;;;;;;;5098402;28;20020;-64
2023/05/24 13:17:18;;;;;;;13.65;7.18;;;;;;;;;;5103132;28;20134;-66
2023/05/24 13:19:43;;;;;;;13.35;5.82;;;;;;;;;;5101580;28;20040;-65
2023/05/24 13:22:09;;;;;;;12.20;6.13;;;;;;;;;;5093448;28;20414;-64
2023/05/24 13:24:34;;;;;;;11.82;5.90;;;;;;;;;;5099045;28;20091;-63
2023/05/24 13:27:00;;;;;;;14.32;6.95;;;;;;;;;;5100163;28;20106;-64
2023/05/24 13:29:25;;;;;;;14.07;6.28;;;;;;;;;;5105676;28;20386;-64
2023/05/24 13:31:50;;;;;;;15.63;5.05;;;;;;;;;;5099760;28;20024;-64
2023/05/24 13:34:17;;;;;;;19.77;6.85;;;;;;;;;;5105871;28;20524;-63
2023/05/24 13:36:44;;;;;;;11.77;5.88;;;;;;;;;;5099212;28;20066;-63
2023/05/24 13:39:09;;;;;;;12.68;7.03;;;;;;;;;;5085058;28;20028;-66
2023/05/24 13:41:35;;;;;;;14.50;6.97;;;;;;;;;;5096955;28;20502;-65
2023/05/24 13:44:01;;;;;;;14.52;6.50;;;;;;;;;;5061009;28;20072;-66
2023/05/24 13:46:27;;;;;;;19.50;6.45;;;;;;;;;;5065581;28;20852;-66
2023/05/24 13:48:53;;;;;;;12.15;6.85;;;;;;;;;;5060310;28;20948;-65
2023/05/24 13:51:19;;;;;;;19.33;6.72;;;;;;;;;;5075294;28;20023;-65
2023/05/24 13:53:46;;;;;;;14.77;6.30;;;;;;;;;;5074768;28;20031;-65
2023/05/24 13:56:12;;;;;;;17.70;6.88;;;;;;;;;;5064514;28;20022;-68
2023/05/24 13:58:37;;;;;;;10.57;6.15;;;;;;;;;;5070645;28;20031;-67
2023/05/24 14:01:02;;;;;;;16.35;6.95;;;;;;;;;;5066197;28;20020;-66
2023/05/24 14:03:27;;;;;;;15.02;6.75;;;;;;;;;;5060449;28;20878;-67
2023/05/24 14:05:53;;;;;;;13.90;6.90;;;;;;;;;;5065505;28;20090;-63
2023/05/24 14:08:18;;;;;;;14.88;6.63;;;;;;;;;;5066508;28;20889;-63
2023/05/24 14:10:45;;;;;;;16.55;6.00;;;;;;;;;;5058191;28;20081;-62
2023/05/24 14:13:11;;;;;;;19.08;6.88;;;;;;;;;;5065352;28;20020;-62
2023/05/24 14:15:36;;;;;;;18.25;6.72;;;;;;;;;;5059016;28;20926;-63
2023/05/24 14:18:06;;;;;;;12.98;7.20;;;;;;;;;;5069444;28;20548;-65
2023/05/24 14:20:32;;;;;;;16.90;6.35;;;;;;;;;;5067720;28;20096;-64
2023/05/24 14:22:58;;;;;;;24.30;7.65;;;;;;;;;;5061169;28;20016;-64
2023/05/24 14:25:23;;;;;;;18.30;6.82;;;;;;;;;;5064759;28;20020;-65